Portada
METAR-TAF:

METAR-TAF

Aeropuertos :

Aeropuerto Internacional Viru Viru

Viru-Viru, Bolivia

latitud: 17-38S, longitud: 063-08W, altitud: 373 m

Observación

El informe se hizo hace 1 hora y 0 minutos, a las 16:00 UTC
Viento 14 kt del sur con ráfagas de 25 kt
Temperatura 20°C
Humedad 40%
Presión 1021 hPa
Visibilidad 10 km o más
Cielo nuboso a una altura de 2700 ft
Cielo cubierto a una altura de 7000 ft

METAR: SLVR 151600Z 18014G25KT 9999 BKN027 OVC070 20/06 Q1021

Hora: 13:00 (17:00 UTC)

Pronóstico

El informe se hizo hace 7 horas y 0 minutos, a las 10:00 UTC
Pronóstico válido del 15 a las 12 UTC al 16 a las 12 UTC
Viento 18 kt del sur
Visibilidad 10 km o más
Cielo nuboso a una altura de 7000 ft
Evolucionando progresivamente
del 15 a las 23 UTC al 16 a las 01 UTC
Viento 10 kt del sur-sureste

TAF: SLVR 151000Z 1512/1612 18018KT 9999 BKN070 TX25/1520Z TN16/1611Z BECMG 1523/1601 16010KT NSC

Observaciones y pronósticos meteorológicos de más de 4000 aeropuertos (mensajes METAR y TAF).

Los puntos amarillos y rojos representan las estaciones disponibles.

Ponga el ratón en el punto deseado para ver el nombre de la estación.

Haga clic para ver las observaciones y los pronósticos meteorológicos.

Para cambiar el mapa : haga clic en los botones verdes con una cruz de color negro para hacer un zoom, en el botón verde con un guión para alejar o en las flechas verdes para mapas adyacentes.


METAR-TAF: